createdAt,value
2019-02-16T00:00:06.181Z,68.68
2019-02-16T00:01:21.233Z,67.96
2019-02-16T00:04:11.745Z,67.85
2019-02-16T00:07:15.237Z,68.58
2019-02-16T00:11:18.468Z,68.30
2019-02-16T00:12:31.422Z,68.82
2019-02-16T00:13:18.467Z,68.74
2019-02-16T00:14:20.225Z,68.85
2019-02-16T00:15:19.102Z,68.54
2019-02-16T00:16:19.151Z,68.85
2019-02-16T00:17:21.539Z,69.29
2019-02-16T00:18:18.628Z,69.09
2019-02-16T00:19:19.252Z,70.05
2019-02-16T00:22:41.001Z,71.33
2019-02-16T00:23:42.991Z,71.98
2019-02-16T00:24:42.085Z,71.36
2019-02-16T00:25:42.010Z,72.60
2019-02-16T00:26:42.227Z,72.08
2019-02-16T00:27:41.499Z,72.60
2019-02-16T00:28:41.401Z,72.84
2019-02-16T00:29:41.400Z,71.91
2019-02-16T00:30:42.609Z,73.18
2019-02-16T00:31:41.191Z,72.98
2019-02-16T00:32:41.473Z,73.80
2019-02-16T00:33:40.816Z,74.46
2019-02-16T00:34:40.814Z,74.05
2019-02-16T00:35:40.813Z,74.67
2019-02-16T00:36:40.815Z,75.74
2019-02-16T00:37:40.806Z,75.64
2019-02-16T00:38:40.760Z,76.16
2019-02-16T00:39:40.755Z,75.71
2019-02-16T00:40:40.750Z,75.71
2019-02-16T00:41:40.729Z,76.02
2019-02-16T00:42:40.733Z,75.60
2019-02-16T00:43:40.716Z,75.85
2019-02-16T00:44:40.716Z,76.16
2019-02-16T00:45:40.700Z,75.74
2019-02-16T00:46:40.698Z,76.26
2019-02-16T00:47:40.664Z,76.06
2019-02-16T00:48:40.656Z,76.37
2019-02-16T00:49:40.673Z,77.20
2019-02-16T00:50:40.654Z,76.75
2019-02-16T00:51:40.628Z,75.60
2019-02-16T00:52:40.624Z,75.50
2019-02-16T00:53:40.616Z,76.75
2019-02-16T00:54:40.610Z,76.09
2019-02-16T00:55:40.577Z,74.91
2019-02-16T00:56:48.606Z,74.19
2019-02-16T00:57:41.323Z,74.15
2019-02-16T00:58:40.556Z,73.74
2019-02-16T00:59:40.866Z,72.60
2019-02-16T01:00:40.724Z,72.56
2019-02-16T01:01:40.506Z,71.81
2019-02-16T01:02:40.483Z,71.84
2019-02-16T01:03:40.513Z,71.19
2019-02-16T01:04:40.540Z,71.29
2019-02-16T01:05:40.455Z,70.98
2019-02-16T01:06:40.506Z,70.87
2019-02-16T01:07:41.334Z,70.98
2019-02-16T01:08:40.456Z,70.77
2019-02-16T01:09:40.471Z,71.39
2019-02-16T01:10:40.453Z,70.95
2019-02-16T01:11:40.418Z,70.57
2019-02-16T01:12:40.394Z,70.32
2019-02-16T01:13:40.391Z,70.95
2019-02-16T01:14:40.402Z,70.43
2019-02-16T01:15:40.372Z,70.43
2019-02-16T01:16:40.374Z,69.92
2019-02-16T01:17:40.395Z,70.12
2019-02-16T01:18:40.352Z,69.81
2019-02-16T01:19:40.338Z,69.57
2019-02-16T01:20:40.322Z,69.47
2019-02-16T01:21:40.301Z,68.85
2019-02-16T01:22:40.317Z,69.06
2019-02-16T01:23:40.276Z,68.95
2019-02-16T01:24:40.276Z,68.74
2019-02-16T01:25:40.295Z,69.16
2019-02-16T01:26:40.248Z,68.64
2019-02-16T01:27:40.252Z,68.95
2019-02-16T01:28:40.257Z,69.26
2019-02-16T01:29:40.234Z,69.37
2019-02-16T01:30:40.816Z,69.50
2019-02-16T01:31:40.177Z,69.47
2019-02-16T01:32:40.176Z,69.40
2019-02-16T01:33:40.181Z,69.26
2019-02-16T01:34:40.160Z,69.37
2019-02-16T01:35:40.142Z,69.37
2019-02-16T01:36:40.174Z,69.57
2019-02-16T01:37:40.138Z,69.57
2019-02-16T01:38:40.125Z,69.47
2019-02-16T01:39:40.199Z,69.57
2019-02-16T01:40:40.196Z,69.88
2019-02-16T01:41:40.081Z,69.37
2019-02-16T01:42:40.105Z,70.01
2019-02-16T01:43:40.062Z,70.19
2019-02-16T01:44:40.102Z,70.12
2019-02-16T01:45:40.071Z,70.43
2019-02-16T01:46:40.016Z,70.32
2019-02-16T01:47:40.061Z,71.05
2019-02-16T01:48:40.037Z,70.84
2019-02-16T01:49:40.014Z,70.95
2019-02-16T01:50:39.998Z,71.50
2019-02-16T01:51:39.955Z,71.81
2019-02-16T01:52:39.953Z,71.60
2019-02-16T01:53:39.976Z,71.91
2019-02-16T01:54:39.976Z,72.02
2019-02-16T01:55:39.941Z,72.98
2019-02-16T01:56:39.938Z,72.98
2019-02-16T01:57:39.938Z,73.19
2019-02-16T01:58:39.899Z,73.29
2019-02-16T01:59:39.905Z,73.08
2019-02-16T02:00:39.907Z,73.50
2019-02-16T02:01:39.863Z,73.50
2019-02-16T02:02:39.846Z,73.39
2019-02-16T02:03:39.852Z,72.98
2019-02-16T02:04:39.843Z,72.88
2019-02-16T02:05:39.866Z,72.98
2019-02-16T02:06:39.839Z,73.29
2019-02-16T02:07:39.837Z,73.08
2019-02-16T02:08:40.335Z,73.19
2019-02-16T02:09:39.848Z,73.29
2019-02-16T02:10:39.880Z,73.08
2019-02-16T02:11:39.809Z,73.19
2019-02-16T02:12:39.756Z,72.98
2019-02-16T02:13:39.724Z,73.53
2019-02-16T02:14:39.734Z,73.74
2019-02-16T02:15:39.736Z,73.84
2019-02-16T02:16:39.775Z,73.88
2019-02-16T02:17:39.789Z,74.22
2019-02-16T02:18:39.674Z,74.63
2019-02-16T02:19:39.664Z,75.92
2019-02-16T02:20:39.678Z,75.71
2019-02-16T02:21:41.465Z,75.71
2019-02-16T02:22:39.649Z,75.95
2019-02-16T02:23:39.670Z,76.37
2019-02-16T02:24:39.617Z,77.44
2019-02-16T02:25:39.606Z,77.51
2019-02-16T02:26:39.621Z,76.92
2019-02-16T02:27:39.585Z,78.06
2019-02-16T02:28:39.598Z,78.47
2019-02-16T02:29:39.614Z,78.89
2019-02-16T02:30:39.597Z,78.30
2019-02-16T02:31:39.587Z,78.41
2019-02-16T02:32:39.621Z,79.24
2019-02-16T02:33:39.605Z,79.24
2019-02-16T02:34:39.612Z,80.18
2019-02-16T02:35:39.595Z,80.28
2019-02-16T02:36:39.509Z,79.97
2019-02-16T02:37:39.504Z,80.00
2019-02-16T02:38:39.450Z,80.42
2019-02-16T02:39:39.457Z,80.11
2019-02-16T02:40:39.611Z,80.32
2019-02-16T02:41:39.459Z,80.69
2019-02-16T02:42:46.484Z,80.11
2019-02-16T02:44:55.997Z,80.73
2019-02-16T02:45:56.019Z,81.04
2019-02-16T02:46:56.012Z,81.25
2019-02-16T02:48:03.905Z,81.15
2019-02-16T02:48:55.998Z,81.15
2019-02-16T02:49:55.945Z,81.04
2019-02-16T02:50:55.962Z,80.52
2019-02-16T02:51:55.945Z,81.04
2019-02-16T02:52:56.618Z,81.04
2019-02-16T02:53:55.901Z,81.18
2019-02-16T02:54:55.922Z,81.29
2019-02-16T02:55:55.900Z,81.91
2019-02-16T02:56:55.889Z,81.67
2019-02-16T02:57:55.848Z,81.39
2019-02-16T02:58:55.874Z,81.25
2019-02-16T02:59:55.846Z,81.25
2019-02-16T03:00:57.481Z,80.42
2019-02-16T03:01:55.819Z,81.11
2019-02-16T03:02:55.809Z,80.38
2019-02-16T03:03:55.803Z,79.76
2019-02-16T03:04:55.777Z,79.34
2019-02-16T03:05:55.813Z,79.10
2019-02-16T03:07:04.310Z,78.68
2019-02-16T03:07:55.762Z,79.44
2019-02-16T03:08:55.765Z,78.82
2019-02-16T03:09:55.771Z,78.82
2019-02-16T03:10:55.735Z,78.82
2019-02-16T03:11:55.713Z,79.03
2019-02-16T03:12:55.694Z,79.24
2019-02-16T03:13:55.689Z,78.99
2019-02-16T03:14:55.689Z,78.99
2019-02-16T03:15:55.695Z,78.47
2019-02-16T03:16:55.669Z,77.64
2019-02-16T03:17:55.657Z,78.06
2019-02-16T03:18:55.649Z,77.95
2019-02-16T03:19:55.669Z,77.64
2019-02-16T03:20:55.652Z,77.51
2019-02-16T03:22:02.474Z,77.09
2019-02-16T03:22:56.593Z,76.89
2019-02-16T03:23:55.586Z,77.09
2019-02-16T03:24:55.590Z,77.09
2019-02-16T03:25:55.605Z,76.78
2019-02-16T03:26:55.555Z,76.68
2019-02-16T03:27:55.556Z,76.47
2019-02-16T03:28:55.540Z,75.85
2019-02-16T03:29:55.541Z,75.81
2019-02-16T03:30:55.547Z,76.06
2019-02-16T03:31:55.521Z,75.74
2019-02-16T03:32:55.477Z,75.60
2019-02-16T03:33:55.515Z,75.50
2019-02-16T03:34:55.490Z,76.23
2019-02-16T03:35:55.683Z,75.92
2019-02-16T03:36:55.461Z,76.12
2019-02-16T03:37:55.412Z,76.02
2019-02-16T03:38:55.435Z,76.12
2019-02-16T03:39:55.425Z,76.26
2019-02-16T03:40:55.414Z,75.29
2019-02-16T03:41:55.404Z,75.23
2019-02-16T03:42:55.371Z,75.43
2019-02-16T03:43:55.401Z,75.64
2019-02-16T03:44:55.387Z,75.85
2019-02-16T03:45:55.362Z,75.64
2019-02-16T03:46:55.379Z,75.74
2019-02-16T03:47:55.343Z,76.06
2019-02-16T03:48:55.312Z,75.64
2019-02-16T03:49:55.306Z,75.23
2019-02-16T03:51:02.997Z,76.37
2019-02-16T03:52:12.877Z,75.95
2019-02-16T03:54:05.981Z,75.43
2019-02-16T03:55:13.763Z,75.50
2019-02-16T03:56:13.021Z,75.29
2019-02-16T03:57:12.974Z,74.71
2019-02-16T03:58:14.916Z,74.60
2019-02-16T04:00:16.535Z,74.98
2019-02-16T04:01:23.507Z,73.84
2019-02-16T04:02:23.519Z,74.71
2019-02-16T04:03:25.380Z,73.94
2019-02-16T04:04:24.896Z,74.98
2019-02-16T04:05:23.447Z,74.36
2019-02-16T04:06:23.971Z,74.36
2019-02-16T04:07:16.448Z,74.46
2019-02-16T04:08:16.443Z,74.26
2019-02-16T04:09:16.373Z,74.36
2019-02-16T04:10:16.375Z,74.46
2019-02-16T04:11:16.345Z,74.46
2019-02-16T04:12:16.364Z,74.26
2019-02-16T04:13:16.313Z,73.98
2019-02-16T04:14:16.320Z,74.91
2019-02-16T04:15:16.317Z,74.60
2019-02-16T04:16:16.310Z,74.81
2019-02-16T04:17:16.312Z,75.43
2019-02-16T04:18:16.295Z,74.81
2019-02-16T04:19:16.270Z,75.67
2019-02-16T04:20:16.247Z,75.88
2019-02-16T04:21:16.255Z,75.46
2019-02-16T04:22:24.330Z,75.46
2019-02-16T04:23:17.243Z,75.71
2019-02-16T04:24:16.246Z,76.12
2019-02-16T04:25:16.211Z,76.09
2019-02-16T04:26:16.203Z,75.57
2019-02-16T04:27:16.229Z,75.78
2019-02-16T04:28:16.202Z,75.36
2019-02-16T04:29:16.206Z,76.50
2019-02-16T04:30:16.177Z,75.78
2019-02-16T04:31:16.139Z,75.36
2019-02-16T04:32:16.502Z,76.29
2019-02-16T04:33:16.151Z,76.29
2019-02-16T04:34:16.135Z,75.88
2019-02-16T04:35:16.097Z,75.74
2019-02-16T04:36:16.089Z,74.81
2019-02-16T04:37:16.133Z,75.74
2019-02-16T04:38:16.071Z,75.15
2019-02-16T04:39:16.076Z,74.81
2019-02-16T04:40:23.080Z,74.74
2019-02-16T04:41:16.042Z,74.50
2019-02-16T04:42:16.048Z,74.60
2019-02-16T04:43:16.046Z,74.71
2019-02-16T04:44:16.056Z,75.02
2019-02-16T04:45:15.999Z,75.02
2019-02-16T04:46:15.987Z,74.29
2019-02-16T04:47:15.990Z,74.63
2019-02-16T04:48:15.988Z,74.53
2019-02-16T04:49:15.942Z,74.74
2019-02-16T04:50:15.951Z,75.67
2019-02-16T04:51:15.954Z,75.81
2019-02-16T04:52:15.924Z,76.12
2019-02-16T04:53:15.946Z,75.88
2019-02-16T04:54:15.890Z,75.71
2019-02-16T04:55:15.890Z,75.88
2019-02-16T04:56:15.875Z,75.92
2019-02-16T04:57:15.882Z,76.54
2019-02-16T04:58:15.913Z,75.71
2019-02-16T04:59:15.822Z,75.92
2019-02-16T05:00:15.837Z,76.12
2019-02-16T05:01:15.849Z,76.26
2019-02-16T05:02:15.831Z,76.26
2019-02-16T05:03:15.905Z,76.47
2019-02-16T05:04:15.810Z,76.68
2019-02-16T05:05:15.778Z,76.16
2019-02-16T05:06:15.768Z,75.71
2019-02-16T05:07:15.768Z,75.81
2019-02-16T05:08:15.748Z,76.23
2019-02-16T05:09:15.760Z,75.92
2019-02-16T05:10:15.731Z,75.71
2019-02-16T05:11:15.696Z,76.57
2019-02-16T05:12:15.699Z,76.68
2019-02-16T05:13:15.705Z,77.20
2019-02-16T05:14:16.491Z,76.78
2019-02-16T05:15:15.686Z,76.99
2019-02-16T05:16:15.668Z,76.57
2019-02-16T05:17:15.660Z,76.68
2019-02-16T05:18:15.671Z,76.06
2019-02-16T05:19:15.651Z,76.89
2019-02-16T05:20:16.497Z,76.57
2019-02-16T05:21:15.616Z,77.09
2019-02-16T05:22:15.626Z,77.03
2019-02-16T05:23:15.604Z,77.65
2019-02-16T05:24:16.002Z,77.34
2019-02-16T05:25:15.577Z,77.65
2019-02-16T05:26:15.558Z,77.72
2019-02-16T05:27:15.562Z,77.44
2019-02-16T05:28:15.536Z,76.47
2019-02-16T05:29:15.555Z,76.37
2019-02-16T05:30:16.533Z,76.78
2019-02-16T05:31:15.550Z,76.99
2019-02-16T05:32:15.495Z,76.78
2019-02-16T05:33:15.497Z,76.16
2019-02-16T05:34:15.512Z,76.06
2019-02-16T05:35:15.468Z,75.95
2019-02-16T05:36:15.468Z,75.95
2019-02-16T05:37:15.439Z,76.78
2019-02-16T05:38:15.448Z,76.51
2019-02-16T05:39:15.438Z,76.72
2019-02-16T05:40:15.408Z,76.82
2019-02-16T05:41:15.402Z,77.13
2019-02-16T05:42:15.411Z,77.34
2019-02-16T05:43:15.416Z,77.44
2019-02-16T05:44:15.397Z,77.37
2019-02-16T05:45:15.342Z,77.58
2019-02-16T05:46:15.339Z,78.31
2019-02-16T05:47:15.356Z,77.34
2019-02-16T05:48:15.385Z,77.34
2019-02-16T05:49:15.354Z,76.92
2019-02-16T05:50:15.301Z,76.61
2019-02-16T05:51:15.290Z,76.72
2019-02-16T05:52:15.285Z,76.16
2019-02-16T05:53:16.018Z,75.85
2019-02-16T05:54:15.277Z,75.74
2019-02-16T05:55:15.846Z,75.85
2019-02-16T05:56:16.234Z,76.37
2019-02-16T05:57:15.246Z,76.19
2019-02-16T05:58:15.639Z,76.29
2019-02-16T05:59:16.477Z,76.82
2019-02-16T06:00:15.438Z,77.03
2019-02-16T06:01:16.155Z,76.54
2019-02-16T06:02:15.494Z,76.61
2019-02-16T06:04:45.601Z,77.37
2019-02-16T06:05:47.434Z,77.89
2019-02-16T06:07:56.317Z,77.58
2019-02-16T06:08:56.304Z,76.51
2019-02-16T06:09:56.335Z,76.82
2019-02-16T06:10:56.269Z,77.34
2019-02-16T06:11:56.278Z,76.95
2019-02-16T06:14:25.240Z,76.82
2019-02-16T06:15:25.018Z,76.95
2019-02-16T06:16:24.923Z,76.95
2019-02-16T06:17:24.927Z,77.03
2019-02-16T06:18:24.880Z,76.19
2019-02-16T06:19:24.877Z,75.98
2019-02-16T06:20:24.876Z,75.98
2019-02-16T06:21:24.842Z,76.64
2019-02-16T06:22:24.847Z,76.64
2019-02-16T06:23:24.846Z,77.48
2019-02-16T06:24:24.872Z,77.58
2019-02-16T06:25:24.819Z,77.37
2019-02-16T06:26:24.768Z,77.79
2019-02-16T06:27:24.774Z,77.51
2019-02-16T06:28:24.764Z,77.16
2019-02-16T06:29:24.754Z,77.06
2019-02-16T06:30:24.745Z,76.75
2019-02-16T06:31:24.763Z,76.95
2019-02-16T06:32:24.740Z,76.64
2019-02-16T06:33:24.723Z,76.85
2019-02-16T06:34:24.695Z,76.85
2019-02-16T06:35:24.729Z,76.40
2019-02-16T06:36:25.214Z,76.40
2019-02-16T06:37:24.646Z,76.40
2019-02-16T06:38:24.708Z,76.19
2019-02-16T06:39:24.686Z,76.16
2019-02-16T06:40:24.685Z,76.09
2019-02-16T06:41:24.640Z,77.13
2019-02-16T06:42:24.626Z,76.23
2019-02-16T06:43:24.616Z,76.23
2019-02-16T06:44:24.585Z,76.12
2019-02-16T06:45:24.598Z,76.12
2019-02-16T06:46:24.560Z,76.09
2019-02-16T06:47:24.548Z,76.09
2019-02-16T06:48:24.583Z,75.98
2019-02-16T06:49:24.541Z,76.29
2019-02-16T06:50:24.563Z,75.67
2019-02-16T06:51:24.503Z,76.23
2019-02-16T06:52:24.501Z,76.43
2019-02-16T06:53:24.496Z,76.95
2019-02-16T06:54:24.481Z,77.48
2019-02-16T06:55:24.489Z,77.40
2019-02-16T06:56:24.467Z,77.51
2019-02-16T06:57:24.501Z,78.03
2019-02-16T06:58:24.437Z,78.45
2019-02-16T06:59:24.457Z,78.38
2019-02-16T07:00:24.437Z,77.86
2019-02-16T07:01:24.413Z,79.00
2019-02-16T07:02:24.407Z,79.32
2019-02-16T07:03:24.417Z,78.90
2019-02-16T07:04:24.391Z,78.76
2019-02-16T07:05:24.382Z,78.24
2019-02-16T07:06:24.377Z,78.10
2019-02-16T07:07:24.346Z,77.27
2019-02-16T07:08:24.356Z,76.29
2019-02-16T07:09:24.310Z,76.19
2019-02-16T07:10:24.314Z,75.78
2019-02-16T07:11:24.306Z,76.19
2019-02-16T07:12:24.298Z,75.22
2019-02-16T07:13:24.286Z,76.47
2019-02-16T07:14:24.277Z,76.06
2019-02-16T07:15:24.276Z,75.85
2019-02-16T07:16:24.258Z,75.85
2019-02-16T07:17:24.244Z,75.09
2019-02-16T07:18:24.268Z,74.46
2019-02-16T07:19:24.218Z,74.11
2019-02-16T07:20:24.226Z,73.70
2019-02-16T07:21:24.175Z,72.94
2019-02-16T07:22:24.188Z,72.11
2019-02-16T07:23:24.183Z,71.53
2019-02-16T07:24:24.158Z,68.67
2019-02-16T07:25:24.159Z,63.27
2019-02-16T07:26:24.162Z,57.75
2019-02-16T07:27:24.129Z,53.66
2019-02-16T07:28:24.128Z,51.98
2019-02-16T07:29:24.185Z,50.80
2019-02-16T07:30:24.755Z,48.27
2019-02-16T07:31:24.108Z,47.97
2019-02-16T07:32:24.718Z,47.56
2019-02-16T07:33:24.066Z,46.92
2019-02-16T07:34:24.056Z,45.02
2019-02-16T07:35:24.067Z,43.88
2019-02-16T07:36:24.053Z,43.85
2019-02-16T07:37:24.040Z,43.75
2019-02-16T07:38:24.038Z,43.65
2019-02-16T07:39:33.047Z,43.65
2019-02-16T07:40:24.049Z,41.92
2019-02-16T07:41:24.017Z,43.26
2019-02-16T07:42:24.000Z,43.44
2019-02-16T07:43:31.843Z,43.47
2019-02-16T07:44:23.956Z,43.14
2019-02-16T07:45:31.141Z,43.63
2019-02-16T07:46:31.962Z,41.74
2019-02-16T07:47:31.056Z,41.53
2019-02-16T07:48:31.089Z,40.52
2019-02-16T07:49:32.445Z,40.31
2019-02-16T07:50:30.944Z,40.52
2019-02-16T07:51:31.933Z,39.97
2019-02-16T07:52:31.447Z,39.04
2019-02-16T07:53:31.871Z,39.69
2019-02-16T07:54:31.890Z,39.95
2019-02-16T07:55:30.891Z,39.76
2019-02-16T07:56:23.856Z,39.20
2019-02-16T07:57:23.841Z,38.18
2019-02-16T07:58:24.497Z,37.90
2019-02-16T07:59:23.850Z,38.27
2019-02-16T08:00:23.771Z,36.66
2019-02-16T08:01:23.777Z,34.53
2019-02-16T08:02:23.757Z,35.13
2019-02-16T08:03:23.768Z,35.61
2019-02-16T08:04:23.722Z,36.32
2019-02-16T08:05:23.731Z,35.48
2019-02-16T08:06:23.765Z,34.31
2019-02-16T08:07:23.734Z,32.62
2019-02-16T08:08:23.687Z,33.67
2019-02-16T08:09:23.691Z,32.40
2019-02-16T08:10:23.678Z,31.06
2019-02-16T08:11:23.706Z,31.07
2019-02-16T08:12:23.668Z,30.86
2019-02-16T08:13:23.646Z,30.96
2019-02-16T08:14:23.617Z,29.72
2019-02-16T08:15:23.672Z,29.09
2019-02-16T08:16:23.620Z,29.41
2019-02-16T08:17:23.607Z,29.30
2019-02-16T08:18:23.595Z,30.66
2019-02-16T08:19:23.572Z,30.99
2019-02-16T08:20:23.559Z,31.43
2019-02-16T08:21:24.502Z,31.93
2019-02-16T08:22:23.551Z,31.52
2019-02-16T08:23:23.550Z,31.12
2019-02-16T08:24:23.520Z,32.45
2019-02-16T08:25:23.511Z,32.78
2019-02-16T08:26:23.528Z,30.70
2019-02-16T08:27:23.479Z,31.22
2019-02-16T08:28:23.479Z,30.52
2019-02-16T08:29:23.485Z,29.62
2019-02-16T08:30:23.463Z,29.02
2019-02-16T08:31:23.532Z,28.47
2019-02-16T08:32:23.468Z,27.62
2019-02-16T08:33:23.403Z,27.81
2019-02-16T08:34:23.418Z,26.82
2019-02-16T08:35:23.478Z,26.89
2019-02-16T08:36:23.401Z,26.14
2019-02-16T08:37:23.427Z,26.58
2019-02-16T08:38:23.355Z,25.22
2019-02-16T08:39:23.341Z,23.61
2019-02-16T08:40:23.350Z,24.21
2019-02-16T08:41:23.373Z,23.42
2019-02-16T08:42:23.539Z,24.38
2019-02-16T08:43:23.348Z,24.49
2019-02-16T08:44:23.319Z,28.01
2019-02-16T08:45:23.305Z,28.04
2019-02-16T08:46:23.277Z,26.12
2019-02-16T08:47:23.287Z,27.92
2019-02-16T08:48:23.265Z,27.98
2019-02-16T08:49:23.244Z,26.95
2019-02-16T08:50:23.293Z,27.16
2019-02-16T08:51:31.070Z,29.19
2019-02-16T08:52:30.606Z,26.82
2019-02-16T08:53:30.284Z,27.00
2019-02-16T08:54:23.246Z,24.45
2019-02-16T08:55:31.202Z,24.02
2019-02-16T08:56:23.185Z,23.54
2019-02-16T08:57:23.179Z,24.85
2019-02-16T08:58:23.263Z,23.93
2019-02-16T08:59:23.144Z,24.39
2019-02-16T09:00:23.150Z,25.68
2019-02-16T09:01:23.090Z,24.82
2019-02-16T09:02:23.111Z,23.68
2019-02-16T09:03:23.095Z,23.64
2019-02-16T09:04:23.111Z,23.61
2019-02-16T09:05:23.143Z,22.88
2019-02-16T09:06:23.068Z,21.15
2019-02-16T09:07:23.085Z,24.57
2019-02-16T09:08:23.063Z,24.66
2019-02-16T09:09:23.120Z,25.62
2019-02-16T09:10:23.056Z,25.18
2019-02-16T09:11:23.041Z,24.87
2019-02-16T09:12:23.031Z,23.42
2019-02-16T09:13:23.028Z,22.75
2019-02-16T09:14:23.010Z,23.12
2019-02-16T09:15:23.139Z,22.19
2019-02-16T09:16:22.963Z,22.88
2019-02-16T09:17:23.076Z,22.97
2019-02-16T09:18:22.929Z,23.00
2019-02-16T09:19:22.931Z,23.62
2019-02-16T09:20:22.919Z,23.00
2019-02-16T09:21:22.917Z,22.55
2019-02-16T09:22:22.894Z,20.95
2019-02-16T09:23:22.909Z,20.72
2019-02-16T09:24:22.855Z,21.97
2019-02-16T09:25:29.891Z,22.13
2019-02-16T09:26:22.838Z,24.07
2019-02-16T09:27:22.868Z,24.26
2019-02-16T09:28:22.843Z,24.57
2019-02-16T09:29:22.791Z,25.83
2019-02-16T09:30:22.801Z,28.01
2019-02-16T09:31:22.795Z,28.02
2019-02-16T09:32:22.777Z,28.20
2019-02-16T09:33:22.770Z,27.61
2019-02-16T09:34:22.747Z,28.68
2019-02-16T09:35:22.738Z,30.76
2019-02-16T09:36:22.737Z,29.40
2019-02-16T09:37:22.713Z,29.35
2019-02-16T09:38:22.756Z,29.52
2019-02-16T09:39:22.720Z,28.55
2019-02-16T09:40:22.686Z,28.22
2019-02-16T09:41:22.673Z,27.95
2019-02-16T09:42:22.677Z,31.07
2019-02-16T09:43:22.672Z,32.22
2019-02-16T09:44:22.637Z,31.88
2019-02-16T09:45:22.628Z,31.41
2019-02-16T09:46:22.624Z,32.32
2019-02-16T09:47:22.613Z,31.70
2019-02-16T09:48:22.632Z,31.16
2019-02-16T09:49:22.616Z,31.25
2019-02-16T09:50:22.584Z,31.30
2019-02-16T09:51:22.554Z,31.61
2019-02-16T09:52:31.982Z,31.67
2019-02-16T09:53:22.544Z,31.54
2019-02-16T09:54:22.568Z,28.74
2019-02-16T09:55:22.593Z,28.12
2019-02-16T09:56:22.534Z,27.68
2019-02-16T09:57:22.492Z,26.57
2019-02-16T09:58:22.481Z,28.02
2019-02-16T09:59:22.486Z,28.00
2019-02-16T10:00:22.484Z,27.59
2019-02-16T10:01:22.463Z,28.51
2019-02-16T10:02:22.476Z,26.77
2019-02-16T10:03:22.442Z,28.51
2019-02-16T10:04:22.452Z,28.40
2019-02-16T10:05:22.470Z,27.75
2019-02-16T10:06:22.406Z,26.73
2019-02-16T10:07:22.401Z,25.82
2019-02-16T10:08:22.413Z,25.90
2019-02-16T10:09:22.380Z,25.40
2019-02-16T10:10:22.387Z,25.07
2019-02-16T10:11:22.361Z,24.95
2019-02-16T10:12:22.322Z,23.92
2019-02-16T10:13:22.346Z,22.62
2019-02-16T10:14:22.331Z,25.42
2019-02-16T10:15:22.341Z,26.65
2019-02-16T10:16:22.296Z,26.84
2019-02-16T10:17:22.294Z,26.77
2019-02-16T10:18:22.277Z,27.56
2019-02-16T10:19:22.281Z,26.84
2019-02-16T10:20:22.264Z,26.65
2019-02-16T10:21:22.233Z,27.80
2019-02-16T10:22:22.230Z,26.76
2019-02-16T10:23:22.214Z,27.83
2019-02-16T10:24:22.214Z,29.40
2019-02-16T10:25:22.245Z,29.13
2019-02-16T10:26:22.195Z,26.68
2019-02-16T10:27:22.185Z,25.94
2019-02-16T10:28:22.177Z,26.04
2019-02-16T10:29:23.211Z,25.64
2019-02-16T10:30:22.150Z,26.87
2019-02-16T10:31:22.137Z,26.26
2019-02-16T10:32:22.130Z,27.26
2019-02-16T10:33:22.120Z,25.54
2019-02-16T10:34:22.247Z,27.16
2019-02-16T10:35:22.093Z,27.11
2019-02-16T10:36:22.105Z,29.17
2019-02-16T10:37:22.095Z,28.47
2019-02-16T10:38:22.694Z,28.58
2019-02-16T10:39:22.050Z,29.40
2019-02-16T10:40:22.166Z,29.39
2019-02-16T10:41:22.034Z,28.03
2019-02-16T10:42:22.020Z,27.80
2019-02-16T10:43:21.998Z,28.00
2019-02-16T10:44:22.006Z,26.42
2019-02-16T10:45:22.058Z,25.00
2019-02-16T10:46:23.792Z,25.40
2019-02-16T10:47:21.996Z,26.87
2019-02-16T10:48:21.960Z,26.89
2019-02-16T10:49:30.164Z,28.01
2019-02-16T10:50:22.135Z,26.45
2019-02-16T10:52:39.467Z,23.32
2019-02-16T10:53:39.547Z,22.12
2019-02-16T10:54:39.536Z,23.13
2019-02-16T10:55:39.459Z,22.39
2019-02-16T10:56:39.430Z,23.04
2019-02-16T10:57:39.495Z,23.62
2019-02-16T10:58:39.555Z,22.69
2019-02-16T10:59:39.440Z,21.59
2019-02-16T11:00:47.508Z,24.40
2019-02-16T11:01:39.681Z,24.30
2019-02-16T11:02:39.947Z,26.14
2019-02-16T11:03:39.409Z,26.87
2019-02-16T11:04:39.370Z,26.90
2019-02-16T11:05:39.379Z,27.70
2019-02-16T11:06:39.336Z,26.04
2019-02-16T11:07:39.858Z,25.72
2019-02-16T11:08:39.326Z,24.79
2019-02-16T11:09:39.291Z,23.55
2019-02-16T11:10:39.374Z,24.31
2019-02-16T11:11:39.323Z,26.08
2019-02-16T11:12:39.273Z,27.09
2019-02-16T11:13:40.256Z,25.32
2019-02-16T11:14:39.266Z,23.16
2019-02-16T11:15:39.268Z,24.04
2019-02-16T11:16:39.235Z,22.61
2019-02-16T11:17:39.210Z,21.98
2019-02-16T11:18:39.207Z,22.46
2019-02-16T11:19:39.215Z,21.41
2019-02-16T11:20:39.211Z,24.71
2019-02-16T11:21:39.886Z,25.84
2019-02-16T11:22:39.184Z,25.28
2019-02-16T11:23:39.148Z,23.55
2019-02-16T11:24:39.135Z,22.34
2019-02-16T11:25:39.143Z,23.43
2019-02-16T11:26:39.147Z,24.29
2019-02-16T11:27:47.907Z,23.65
2019-02-16T11:28:46.296Z,21.92
2019-02-16T11:29:47.144Z,22.63
2019-02-16T11:30:46.230Z,21.59
2019-02-16T11:31:46.127Z,21.14
2019-02-16T11:32:46.208Z,20.87
2019-02-16T11:33:48.064Z,20.65
2019-02-16T11:34:48.137Z,20.12
2019-02-16T11:35:46.303Z,19.72
2019-02-16T11:36:48.131Z,19.52
2019-02-16T11:37:39.090Z,19.43
2019-02-16T11:38:47.676Z,21.69
2019-02-16T11:39:47.755Z,23.13
2019-02-16T11:40:46.302Z,23.65
2019-02-16T11:41:46.075Z,22.27
2019-02-16T11:42:39.121Z,21.70
2019-02-16T11:43:40.964Z,21.39
2019-02-16T11:44:38.917Z,20.02
2019-02-16T11:45:38.945Z,18.57
2019-02-16T11:46:38.892Z,18.15
2019-02-16T11:47:38.920Z,16.93
2019-02-16T11:48:38.870Z,16.02
2019-02-16T11:49:38.871Z,17.25
2019-02-16T11:50:38.896Z,18.09
2019-02-16T11:51:38.855Z,18.87
2019-02-16T11:52:38.859Z,17.83
2019-02-16T11:53:38.836Z,16.83
2019-02-16T11:54:45.452Z,16.31
2019-02-16T11:55:39.878Z,16.16
2019-02-16T11:56:38.812Z,17.27
2019-02-16T11:57:38.807Z,17.38
2019-02-16T11:58:38.794Z,16.25
2019-02-16T11:59:38.803Z,15.42
2019-02-16T12:00:40.265Z,15.12
2019-02-16T12:01:40.728Z,15.63
2019-02-16T12:02:39.963Z,15.23
2019-02-16T12:03:38.754Z,14.92
2019-02-16T12:04:38.721Z,15.41
2019-02-16T12:05:38.714Z,14.29
2019-02-16T12:06:38.758Z,14.95
2019-02-16T12:07:38.705Z,16.17
2019-02-16T12:08:38.712Z,16.28
2019-02-16T12:09:38.790Z,16.22
2019-02-16T12:10:38.695Z,15.01
2019-02-16T12:11:38.715Z,15.22
2019-02-16T12:12:38.638Z,15.02
2019-02-16T12:13:38.650Z,14.78
2019-02-16T12:14:39.171Z,14.15
2019-02-16T12:15:38.616Z,12.79
2019-02-16T12:16:38.693Z,14.16
2019-02-16T12:17:38.579Z,13.26
2019-02-16T12:18:38.569Z,12.68
2019-02-16T12:19:38.582Z,13.35
2019-02-16T12:20:38.585Z,13.70
2019-02-16T12:21:38.587Z,13.39
2019-02-16T12:22:38.542Z,13.18
2019-02-16T12:23:38.512Z,13.40
2019-02-16T12:24:38.561Z,13.21
2019-02-16T12:25:38.514Z,14.46
2019-02-16T12:26:38.518Z,15.58
2019-02-16T12:27:38.489Z,16.08
2019-02-16T12:28:38.465Z,15.99
2019-02-16T12:29:38.463Z,16.10
2019-02-16T12:30:38.461Z,16.51
2019-02-16T12:31:46.980Z,17.52
2019-02-16T12:32:38.911Z,16.80
2019-02-16T12:33:38.498Z,17.85
2019-02-16T12:34:38.502Z,17.98
2019-02-16T12:35:38.466Z,18.29
2019-02-16T12:36:38.419Z,19.02
2019-02-16T12:37:38.385Z,18.99
2019-02-16T12:38:38.395Z,18.06
2019-02-16T12:39:38.365Z,17.87
2019-02-16T12:40:38.345Z,18.76
2019-02-16T12:41:38.399Z,18.05
2019-02-16T12:42:38.352Z,17.34
2019-02-16T12:43:38.336Z,17.65
2019-02-16T12:44:38.325Z,18.25
2019-02-16T12:45:38.329Z,17.22
2019-02-16T12:46:38.278Z,18.16
2019-02-16T12:47:38.295Z,18.36
2019-02-16T12:48:38.261Z,17.94
2019-02-16T12:49:38.262Z,17.58
2019-02-16T12:50:38.251Z,15.95
2019-02-16T12:51:38.259Z,15.43
2019-02-16T12:52:38.264Z,15.42
2019-02-16T12:53:38.232Z,14.31
2019-02-16T12:54:38.210Z,13.60
2019-02-16T12:55:38.204Z,13.39
2019-02-16T12:56:38.189Z,12.90
2019-02-16T12:57:38.202Z,13.60
2019-02-16T12:58:38.144Z,13.40
2019-02-16T12:59:38.143Z,13.51
2019-02-16T13:00:38.150Z,13.71
2019-02-16T13:01:38.141Z,13.50
2019-02-16T13:02:38.157Z,12.71
2019-02-16T13:03:38.117Z,13.29
2019-02-16T13:04:38.102Z,13.39
2019-02-16T13:05:38.148Z,12.70
2019-02-16T13:06:38.089Z,13.39
2019-02-16T13:07:38.070Z,12.29
2019-02-16T13:08:38.072Z,13.01
2019-02-16T13:09:38.329Z,13.42
2019-02-16T13:10:38.026Z,15.36